createdAt,value
2018-04-30T00:01:03.593Z,98982
2018-04-30T00:03:32.645Z,98984
2018-04-30T00:06:01.065Z,98968
2018-04-30T00:08:30.133Z,98945
2018-04-30T00:10:58.394Z,98937
2018-04-30T00:13:26.708Z,98924
2018-04-30T00:15:55.788Z,98907
2018-04-30T00:18:24.050Z,98889
2018-04-30T00:20:52.344Z,98889
2018-04-30T00:23:20.597Z,98882
2018-04-30T00:25:48.935Z,98885
2018-04-30T00:28:17.233Z,98871
2018-04-30T00:30:45.684Z,98869
2018-04-30T00:33:14.223Z,98879
2018-04-30T00:35:42.589Z,98878
2018-04-30T00:38:10.950Z,98881
2018-04-30T00:40:39.232Z,98885
2018-04-30T00:43:07.544Z,98896
2018-04-30T00:45:36.727Z,98900
2018-04-30T00:48:05.349Z,98900
2018-04-30T00:50:34.511Z,98902
2018-04-30T00:53:02.862Z,98897
2018-04-30T00:55:31.392Z,98897
2018-04-30T00:57:59.807Z,98893
2018-04-30T01:00:28.110Z,98877
2018-04-30T01:02:56.364Z,98857
2018-04-30T01:05:24.684Z,98858
2018-04-30T01:07:52.983Z,98857
2018-04-30T01:10:22.177Z,98855
2018-04-30T01:12:51.039Z,98862
2018-04-30T01:15:19.412Z,98856
2018-04-30T01:17:47.824Z,98847
2018-04-30T01:20:17.075Z,98847
2018-04-30T01:22:45.350Z,98842
2018-04-30T01:25:13.627Z,98846
2018-04-30T01:27:42.048Z,98845
2018-04-30T01:30:10.707Z,98848
2018-04-30T01:32:39.089Z,98845
2018-04-30T01:35:07.469Z,98832
2018-04-30T01:37:35.803Z,98824
2018-04-30T01:40:04.211Z,98819
2018-04-30T01:42:33.900Z,98824
2018-04-30T01:45:02.208Z,98832
2018-04-30T01:47:30.605Z,98827
2018-04-30T01:49:58.893Z,98829
2018-04-30T01:52:27.928Z,98841
2018-04-30T01:54:56.193Z,98851
2018-04-30T01:57:24.500Z,98857
2018-04-30T01:59:52.874Z,98848
2018-04-30T02:02:21.302Z,98817
2018-04-30T02:04:50.343Z,98823
2018-04-30T02:07:18.646Z,98831
2018-04-30T02:09:46.943Z,98839
2018-04-30T02:12:15.360Z,98849
2018-04-30T02:14:43.643Z,98856
2018-04-30T02:17:12.222Z,98847
2018-04-30T02:19:40.648Z,98830
2018-04-30T02:22:08.994Z,98828
2018-04-30T02:24:37.307Z,98834
2018-04-30T02:27:05.649Z,98843
2018-04-30T02:29:34.149Z,98845
2018-04-30T02:32:02.846Z,98845
2018-04-30T02:34:31.153Z,98839
2018-04-30T02:36:59.453Z,98838
2018-04-30T02:39:27.765Z,98837
2018-04-30T02:41:57.791Z,98827
2018-04-30T02:44:26.085Z,98833
2018-04-30T02:46:55.155Z,98834
2018-04-30T02:49:23.640Z,98833
2018-04-30T02:51:51.938Z,98827
2018-04-30T02:54:20.994Z,98817
2018-04-30T02:56:49.273Z,98813
2018-04-30T02:59:17.578Z,98806
2018-04-30T03:01:47.585Z,98804
2018-04-30T03:04:16.034Z,98811
2018-04-30T03:06:44.519Z,98805
2018-04-30T03:09:12.978Z,98800
2018-04-30T03:11:41.569Z,98791
2018-04-30T03:14:11.302Z,98791
2018-04-30T03:16:39.614Z,98788
2018-04-30T03:19:08.768Z,98779
2018-04-30T03:21:37.342Z,98780
2018-04-30T03:24:05.675Z,98785
2018-04-30T03:26:34.892Z,98783
2018-04-30T03:29:03.183Z,98785
2018-04-30T03:31:31.479Z,98795
2018-04-30T03:33:59.872Z,98791
2018-04-30T03:36:28.349Z,98797
2018-04-30T03:38:56.762Z,98792
2018-04-30T03:41:25.380Z,98800
2018-04-30T03:43:53.888Z,98815
2018-04-30T03:46:23.455Z,98830
2018-04-30T03:48:51.912Z,98841
2018-04-30T03:51:20.215Z,98848
2018-04-30T03:53:48.728Z,98838
2018-04-30T03:56:17.114Z,98839
2018-04-30T03:58:45.392Z,98844
2018-04-30T04:01:31.673Z,98839
2018-04-30T04:04:18.580Z,98840
2018-04-30T04:06:52.958Z,98849
2018-04-30T04:09:22.144Z,98851
2018-04-30T04:11:51.198Z,98854
2018-04-30T04:14:19.477Z,98848
2018-04-30T04:16:47.750Z,98859
2018-04-30T04:19:16.048Z,98861
2018-04-30T04:21:44.470Z,98860
2018-04-30T04:24:13.647Z,98856
2018-04-30T04:26:42.792Z,98858
2018-04-30T04:29:11.110Z,98857
2018-04-30T04:31:39.501Z,98864
2018-04-30T04:34:08.569Z,98874
2018-04-30T04:36:37.088Z,98879
2018-04-30T04:39:06.585Z,98876
2018-04-30T04:41:35.868Z,98883
2018-04-30T04:44:04.134Z,98886
2018-04-30T04:46:32.620Z,98886
2018-04-30T04:49:00.927Z,98890
2018-04-30T04:51:29.941Z,98885
2018-04-30T04:53:58.233Z,98884
2018-04-30T04:56:26.659Z,98893
2018-04-30T04:58:55.078Z,98906
2018-04-30T05:01:23.847Z,98911
2018-04-30T05:03:53.120Z,98919
2018-04-30T05:06:21.406Z,98932
2018-04-30T05:08:50.452Z,98932
2018-04-30T05:11:18.881Z,98926
2018-04-30T05:13:47.939Z,98932
2018-04-30T05:16:16.225Z,98932
2018-04-30T05:18:44.588Z,98937
2018-04-30T05:21:12.866Z,98949
2018-04-30T05:23:41.395Z,98948
2018-04-30T05:26:10.524Z,98953
2018-04-30T05:28:38.915Z,98957
2018-04-30T05:31:07.488Z,98965
2018-04-30T05:33:36.961Z,98974
2018-04-30T05:36:05.254Z,98979
2018-04-30T05:38:33.569Z,98974
2018-04-30T05:41:02.127Z,98978
2018-04-30T05:43:30.488Z,98981
2018-04-30T05:45:59.051Z,98972
2018-04-30T05:48:28.194Z,98974
2018-04-30T05:50:56.627Z,98966
2018-04-30T05:53:25.795Z,98970
2018-04-30T05:55:54.149Z,98978
2018-04-30T05:58:22.425Z,98963
2018-04-30T06:00:50.744Z,98976
2018-04-30T06:03:20.541Z,98980
2018-04-30T06:05:48.799Z,99000
2018-04-30T06:08:17.116Z,99004
2018-04-30T06:10:46.699Z,99028
2018-04-30T06:13:14.959Z,99037
2018-04-30T06:15:43.249Z,99035
2018-04-30T06:18:11.680Z,99038
2018-04-30T06:20:40.040Z,99040
2018-04-30T06:23:09.101Z,99044
2018-04-30T06:25:37.774Z,99038
2018-04-30T06:28:06.255Z,99047
2018-04-30T06:30:34.545Z,99049
2018-04-30T06:33:02.829Z,99047
2018-04-30T06:35:31.080Z,99043
2018-04-30T06:37:59.371Z,99056
2018-04-30T06:40:27.624Z,99056
2018-04-30T06:42:56.124Z,99055
2018-04-30T06:45:24.694Z,99066
2018-04-30T06:47:52.988Z,99065
2018-04-30T06:50:21.296Z,99068
2018-04-30T06:52:50.400Z,99074
2018-04-30T06:55:19.636Z,99084
2018-04-30T06:57:48.015Z,99077
2018-04-30T07:00:16.390Z,99078
2018-04-30T07:02:44.680Z,99081
2018-04-30T07:05:12.964Z,99088
2018-04-30T07:07:41.250Z,99075
2018-04-30T07:10:09.661Z,99072
2018-04-30T07:12:38.716Z,99070
2018-04-30T07:15:07.140Z,99067
2018-04-30T07:17:35.769Z,99069
2018-04-30T07:20:04.295Z,99068
2018-04-30T07:22:32.494Z,99072
2018-04-30T07:25:00.854Z,99075
2018-04-30T07:27:29.932Z,99070
2018-04-30T07:29:58.241Z,99067
2018-04-30T07:32:26.766Z,99077
2018-04-30T07:34:55.397Z,99078
2018-04-30T07:37:23.773Z,99077
2018-04-30T07:39:52.213Z,99092
2018-04-30T07:42:20.527Z,99097
2018-04-30T07:44:49.575Z,99087
2018-04-30T07:47:17.899Z,99096
2018-04-30T07:49:47.268Z,99094
2018-04-30T07:52:15.631Z,99101
2018-04-30T07:54:44.054Z,99101
2018-04-30T07:57:12.540Z,99100
2018-04-30T07:59:40.855Z,99107
2018-04-30T08:02:09.642Z,99117
2018-04-30T08:04:38.305Z,99111
2018-04-30T08:07:06.641Z,99113
2018-04-30T08:09:34.946Z,99123
2018-04-30T08:12:04.162Z,99127
2018-04-30T08:14:36.317Z,99132
2018-04-30T08:17:05.680Z,99132
2018-04-30T08:19:34.050Z,99149
2018-04-30T08:22:02.497Z,99150
2018-04-30T08:24:31.097Z,99159
2018-04-30T08:26:59.403Z,99165
2018-04-30T08:29:27.706Z,99169
2018-04-30T08:31:56.825Z,99174
2018-04-30T08:34:25.372Z,99182
2018-04-30T08:36:54.479Z,99175
2018-04-30T08:39:23.629Z,99182
2018-04-30T08:41:51.936Z,99187
2018-04-30T08:44:20.235Z,99190
2018-04-30T08:46:49.442Z,99185
2018-04-30T08:49:18.043Z,99182
2018-04-30T08:51:46.572Z,99203
2018-04-30T08:54:14.866Z,99200
2018-04-30T08:56:43.269Z,99219
2018-04-30T08:59:11.560Z,99228
2018-04-30T09:01:39.851Z,99228
2018-04-30T09:04:09.787Z,99223
2018-04-30T09:06:38.081Z,99214
2018-04-30T09:09:06.425Z,99208
2018-04-30T09:11:34.746Z,99196
2018-04-30T09:14:03.796Z,99194
2018-04-30T09:16:32.148Z,99196
2018-04-30T09:19:00.455Z,99193
2018-04-30T09:21:28.764Z,99194
2018-04-30T09:23:57.172Z,99189
2018-04-30T09:26:25.390Z,99193
2018-04-30T09:28:53.804Z,99194
2018-04-30T09:31:22.932Z,99203
2018-04-30T09:33:51.230Z,99202
2018-04-30T09:36:19.652Z,99201
2018-04-30T09:38:48.838Z,99208
2018-04-30T09:41:17.474Z,99214
2018-04-30T09:43:45.810Z,99226
2018-04-30T09:46:14.837Z,99224
2018-04-30T09:48:43.130Z,99235
2018-04-30T09:51:11.644Z,99241
2018-04-30T09:53:40.051Z,99247
2018-04-30T09:56:08.455Z,99241
2018-04-30T09:58:37.046Z,99236
2018-04-30T10:01:05.466Z,99201
2018-04-30T10:03:35.281Z,99227
2018-04-30T10:06:03.836Z,99219
2018-04-30T10:08:32.325Z,99224
2018-04-30T10:11:00.762Z,99229
2018-04-30T10:13:29.100Z,99222
2018-04-30T10:15:57.560Z,99225
2018-04-30T10:18:25.948Z,99219
2018-04-30T10:20:55.411Z,99217
2018-04-30T10:23:23.741Z,99221
2018-04-30T10:25:52.062Z,99206
2018-04-30T10:28:20.420Z,99197
2018-04-30T10:30:49.449Z,99193
2018-04-30T10:33:17.937Z,99191
2018-04-30T10:35:46.304Z,99187
2018-04-30T10:38:14.851Z,99177
2018-04-30T10:40:44.160Z,99173
2018-04-30T10:43:12.471Z,99172
2018-04-30T10:45:40.929Z,99162
2018-04-30T10:48:09.661Z,99154
2018-04-30T10:50:38.404Z,99171
2018-04-30T10:53:06.936Z,99159
2018-04-30T10:55:35.421Z,99142
2018-04-30T10:58:03.717Z,99158
2018-04-30T11:00:32.898Z,99158
2018-04-30T11:03:01.251Z,99156
2018-04-30T11:05:29.552Z,99163
2018-04-30T11:07:57.819Z,99166
2018-04-30T11:10:26.193Z,99163
2018-04-30T11:12:54.493Z,99165
2018-04-30T11:15:23.596Z,99171
2018-04-30T11:17:52.793Z,99176
2018-04-30T11:20:22.392Z,99176
2018-04-30T11:22:50.716Z,99176
2018-04-30T11:25:19.193Z,99183
2018-04-30T11:27:47.657Z,99185
2018-04-30T11:30:15.935Z,99185
2018-04-30T11:32:44.202Z,99179
2018-04-30T11:35:13.417Z,99168
2018-04-30T11:37:41.913Z,99190
2018-04-30T11:40:10.393Z,99202
2018-04-30T11:42:38.703Z,99198
2018-04-30T11:45:08.174Z,99199
2018-04-30T11:47:36.602Z,99204
2018-04-30T11:50:05.778Z,99206
2018-04-30T11:52:34.965Z,99223
2018-04-30T11:55:03.274Z,99215
2018-04-30T11:57:32.391Z,99227
2018-04-30T12:00:00.757Z,99215
2018-04-30T12:02:29.946Z,99211
2018-04-30T12:04:58.323Z,99220
2018-04-30T12:07:26.628Z,99219
2018-04-30T12:09:55.129Z,99223
2018-04-30T12:12:23.669Z,99204
2018-04-30T12:14:52.840Z,99209
2018-04-30T12:17:21.395Z,99206
2018-04-30T12:19:49.673Z,99198
2018-04-30T12:22:18.248Z,99193
2018-04-30T12:24:46.588Z,99195
2018-04-30T12:27:15.078Z,99200
2018-04-30T12:29:44.246Z,99203
2018-04-30T12:32:12.647Z,99211
2018-04-30T12:34:41.944Z,99214
2018-04-30T12:37:11.017Z,99195
2018-04-30T12:39:39.338Z,99200
2018-04-30T12:42:07.709Z,99222
2018-04-30T12:44:36.798Z,99203
2018-04-30T12:47:05.064Z,99175
2018-04-30T12:49:34.200Z,99182
2018-04-30T12:52:04.436Z,99180
2018-04-30T12:54:33.868Z,99171
2018-04-30T12:57:02.292Z,99168
2018-04-30T12:59:30.784Z,99185
2018-04-30T13:01:59.274Z,99200
2018-04-30T13:04:27.569Z,99193
2018-04-30T13:06:55.892Z,99193
2018-04-30T13:09:24.211Z,99189
2018-04-30T13:11:52.487Z,99204
2018-04-30T13:14:20.867Z,99195
2018-04-30T13:16:49.228Z,99202
2018-04-30T13:19:17.712Z,99200
2018-04-30T13:21:46.161Z,99210
2018-04-30T13:24:16.524Z,99186
2018-04-30T13:26:44.959Z,99233
2018-04-30T13:29:13.336Z,99243
2018-04-30T13:31:41.829Z,99245
2018-04-30T13:34:11.082Z,99242
2018-04-30T13:36:39.652Z,99238
2018-04-30T13:39:08.058Z,99237
2018-04-30T13:41:37.273Z,99238
2018-04-30T13:44:06.372Z,99242
2018-04-30T13:46:34.732Z,99238
2018-04-30T13:49:03.062Z,99243
2018-04-30T13:51:31.443Z,99234
2018-04-30T13:53:59.713Z,99247
2018-04-30T13:56:27.979Z,99239
2018-04-30T13:58:56.497Z,99241
2018-04-30T14:01:24.862Z,99246
2018-04-30T14:03:53.209Z,99248
2018-04-30T14:06:21.683Z,99251
2018-04-30T14:08:50.778Z,99259
2018-04-30T14:11:20.059Z,99277
2018-04-30T14:13:48.333Z,99336
2018-04-30T14:16:17.473Z,99349
2018-04-30T14:18:45.742Z,99336
2018-04-30T14:21:14.318Z,99325
2018-04-30T14:23:42.622Z,99320
2018-04-30T14:26:12.796Z,99313
2018-04-30T14:28:41.313Z,99306
2018-04-30T14:31:09.643Z,99292
2018-04-30T14:33:38.278Z,99309
2018-04-30T14:36:06.761Z,99304
2018-04-30T14:38:35.628Z,99301
2018-04-30T14:41:04.991Z,99298
2018-04-30T14:43:34.126Z,99325
2018-04-30T14:46:03.181Z,99294
2018-04-30T14:48:31.709Z,99294
2018-04-30T14:51:00.092Z,99290
2018-04-30T14:53:28.552Z,99287
2018-04-30T14:55:57.599Z,99299
2018-04-30T14:58:25.907Z,99297
2018-04-30T15:00:54.331Z,99293
2018-04-30T15:03:22.834Z,99287
2018-04-30T15:05:51.267Z,99291
2018-04-30T15:08:20.420Z,99297
2018-04-30T15:10:48.778Z,99298
2018-04-30T15:13:17.103Z,99306
2018-04-30T15:15:45.457Z,99302
2018-04-30T15:18:13.867Z,99300
2018-04-30T15:20:43.073Z,99305
2018-04-30T15:23:12.218Z,99306
2018-04-30T15:25:40.680Z,99303
2018-04-30T15:28:09.025Z,99305
2018-04-30T15:30:37.655Z,99313
2018-04-30T15:33:05.975Z,99297
2018-04-30T15:35:34.307Z,99315
2018-04-30T15:38:02.833Z,99303
2018-04-30T15:40:31.138Z,99319
2018-04-30T15:43:00.238Z,99301
2018-04-30T15:45:28.641Z,99300
2018-04-30T15:47:56.999Z,99301
2018-04-30T15:50:25.566Z,99288
2018-04-30T15:52:54.856Z,99301
2018-04-30T15:55:23.906Z,99288
2018-04-30T15:57:53.334Z,99292
2018-04-30T16:00:21.747Z,99298
2018-04-30T16:02:50.891Z,99293
2018-04-30T16:05:19.289Z,99292
2018-04-30T16:07:47.653Z,99287
2018-04-30T16:10:16.234Z,99286
2018-04-30T16:12:44.693Z,99289
2018-04-30T16:15:13.027Z,99286
2018-04-30T16:17:42.118Z,99277
2018-04-30T16:20:10.418Z,99280
2018-04-30T16:22:38.773Z,99274
2018-04-30T16:25:07.869Z,99288
2018-04-30T16:27:37.082Z,99279
2018-04-30T16:30:07.292Z,99287
2018-04-30T16:32:36.528Z,99282
2018-04-30T16:35:04.852Z,99269
2018-04-30T16:37:33.161Z,99263
2018-04-30T16:40:02.466Z,99257
2018-04-30T16:42:31.567Z,99252
2018-04-30T16:44:59.944Z,99255
2018-04-30T16:47:28.294Z,99251
2018-04-30T16:49:56.944Z,99242
2018-04-30T16:52:25.303Z,99251
2018-04-30T16:54:53.685Z,99254
2018-04-30T16:57:21.997Z,99250
2018-04-30T16:59:50.409Z,99245
2018-04-30T17:02:19.738Z,99246
2018-04-30T17:04:48.621Z,99302
2018-04-30T17:07:17.208Z,99252
2018-04-30T17:09:45.794Z,99275
2018-04-30T17:12:14.358Z,99250
2018-04-30T17:14:42.963Z,99243
2018-04-30T17:17:11.543Z,99242
2018-04-30T17:19:40.135Z,99240
2018-04-30T17:22:10.676Z,99248
2018-04-30T17:24:39.007Z,99235
2018-04-30T17:27:08.325Z,99235
2018-04-30T17:29:37.084Z,99243
2018-04-30T17:32:05.612Z,99242
2018-04-30T17:34:34.068Z,99232
2018-04-30T17:37:04.497Z,99253
2018-04-30T17:39:32.983Z,99245
2018-04-30T17:42:01.548Z,99238
2018-04-30T17:44:31.031Z,99236
2018-04-30T17:46:59.649Z,99241
2018-04-30T17:49:28.022Z,99245
2018-04-30T17:51:56.344Z,99256
2018-04-30T17:54:24.813Z,99253
2018-04-30T17:56:53.240Z,99258
2018-04-30T17:59:22.390Z,99252
2018-04-30T18:01:50.808Z,99252
2018-04-30T18:04:19.232Z,99261
2018-04-30T18:06:47.630Z,99271
2018-04-30T18:09:17.728Z,99270
2018-04-30T18:11:46.049Z,99281
2018-04-30T18:14:14.478Z,99267
2018-04-30T18:16:42.844Z,99277
2018-04-30T18:19:11.984Z,99269
2018-04-30T18:21:40.443Z,99262
2018-04-30T18:24:08.862Z,99280
2018-04-30T18:26:37.245Z,99261
2018-04-30T18:29:05.541Z,99277
2018-04-30T18:31:34.642Z,99278
2018-04-30T18:34:03.731Z,99257
2018-04-30T18:36:32.963Z,99276
2018-04-30T18:39:01.427Z,99268
2018-04-30T18:41:30.491Z,99279
2018-04-30T18:43:58.904Z,99284
2018-04-30T18:46:27.232Z,99277
2018-04-30T18:48:55.669Z,99284
2018-04-30T18:51:24.271Z,99273
2018-04-30T18:53:52.661Z,99265
2018-04-30T18:56:20.952Z,99265
2018-04-30T18:58:49.379Z,99249
2018-04-30T19:01:17.874Z,99252
2018-04-30T19:03:46.237Z,99257
2018-04-30T19:06:14.938Z,99261
2018-04-30T19:08:43.309Z,99255
2018-04-30T19:11:12.489Z,99264
2018-04-30T19:13:41.711Z,99264
2018-04-30T19:16:10.236Z,99260
2018-04-30T19:18:38.593Z,99268
2018-04-30T19:21:07.001Z,99272
2018-04-30T19:23:35.578Z,99256
2018-04-30T19:26:03.949Z,99254
2018-04-30T19:28:32.294Z,99266
2018-04-30T19:31:01.049Z,99229
2018-04-30T19:33:29.598Z,99245
2018-04-30T19:35:58.033Z,99247
2018-04-30T19:38:26.520Z,99253
2018-04-30T19:40:55.039Z,99241
2018-04-30T19:43:23.441Z,99247
2018-04-30T19:45:51.904Z,99245
2018-04-30T19:48:20.434Z,99279
2018-04-30T19:50:49.136Z,99260
2018-04-30T19:53:17.655Z,99261
2018-04-30T19:55:46.253Z,99255
2018-04-30T19:58:14.620Z,99261
2018-04-30T20:00:43.080Z,99274
2018-04-30T20:03:11.690Z,99261
2018-04-30T20:05:40.167Z,99277
2018-04-30T20:08:10.045Z,99263
2018-04-30T20:10:38.576Z,99281
2018-04-30T20:13:07.699Z,99280
2018-04-30T20:15:36.106Z,99271
2018-04-30T20:18:04.456Z,99284
2018-04-30T20:20:33.801Z,99283
2018-04-30T20:23:02.187Z,99284
2018-04-30T20:25:30.591Z,99283
2018-04-30T20:27:59.221Z,99265
2018-04-30T20:30:27.883Z,99292
2018-04-30T20:32:56.259Z,99281
2018-04-30T20:35:24.590Z,99287
2018-04-30T20:37:52.955Z,99274
2018-04-30T20:40:21.320Z,99277
2018-04-30T20:42:50.739Z,99266
2018-04-30T20:45:19.149Z,99267
2018-04-30T20:47:47.478Z,99275
2018-04-30T20:50:15.831Z,99258
2018-04-30T20:52:44.175Z,99284
2018-04-30T20:55:12.605Z,99280
2018-04-30T20:57:41.051Z,99292
2018-04-30T21:00:10.279Z,99276
2018-04-30T21:02:38.929Z,99292
2018-04-30T21:05:08.156Z,99295
2018-04-30T21:07:36.664Z,99283
2018-04-30T21:10:05.368Z,99271
2018-04-30T21:12:34.950Z,99295
2018-04-30T21:15:03.391Z,99297
2018-04-30T21:17:32.712Z,99305
2018-04-30T21:20:01.107Z,99298
2018-04-30T21:22:29.757Z,99300
2018-04-30T21:24:58.934Z,99331
2018-04-30T21:27:27.487Z,99298
2018-04-30T21:29:55.814Z,99296
2018-04-30T21:32:24.949Z,99311
2018-04-30T21:34:53.304Z,99323
2018-04-30T21:37:21.741Z,99333
2018-04-30T21:39:50.122Z,99324
2018-04-30T21:42:18.867Z,99329
2018-04-30T21:44:47.337Z,99342
2018-04-30T21:47:15.673Z,99331
2018-04-30T21:49:44.175Z,99346
2018-04-30T21:52:13.301Z,99349
2018-04-30T21:54:41.930Z,99364
2018-04-30T21:57:10.247Z,99357
2018-04-30T21:59:38.528Z,99369
2018-04-30T22:02:06.841Z,99384
2018-04-30T22:04:35.397Z,99365
2018-04-30T22:07:03.869Z,99368
2018-04-30T22:09:32.391Z,99378
2018-04-30T22:12:00.867Z,99380
2018-04-30T22:14:29.308Z,99381
2018-04-30T22:16:57.915Z,99368
2018-04-30T22:19:26.350Z,99398
2018-04-30T22:21:54.645Z,99377
2018-04-30T22:24:23.008Z,99384
2018-04-30T22:26:51.409Z,99377
2018-04-30T22:29:19.777Z,99376
2018-04-30T22:31:48.082Z,99383
2018-04-30T22:34:16.816Z,99395
2018-04-30T22:36:47.155Z,99395
2018-04-30T22:39:15.380Z,99397
2018-04-30T22:41:43.696Z,99404
2018-04-30T22:44:12.821Z,99402
2018-04-30T22:46:41.165Z,99401
2018-04-30T22:49:10.188Z,99413
2018-04-30T22:51:38.495Z,99420
2018-04-30T22:54:06.824Z,99418
2018-04-30T22:56:36.058Z,99415
2018-04-30T22:59:04.500Z,99440
2018-04-30T23:01:33.578Z,99422
2018-04-30T23:04:02.966Z,99423
2018-04-30T23:06:31.206Z,99439
2018-04-30T23:08:59.808Z,99441
2018-04-30T23:11:28.374Z,99443
2018-04-30T23:13:56.744Z,99444
2018-04-30T23:16:25.061Z,99460
2018-04-30T23:18:53.408Z,99447
2018-04-30T23:21:21.777Z,99468
2018-04-30T23:23:50.380Z,99467
2018-04-30T23:26:18.764Z,99471
2018-04-30T23:28:47.053Z,99470
2018-04-30T23:31:15.402Z,99474
2018-04-30T23:33:43.855Z,99467
2018-04-30T23:36:12.385Z,99480
2018-04-30T23:38:42.325Z,99475
2018-04-30T23:41:10.589Z,99471
2018-04-30T23:43:39.235Z,99484
2018-04-30T23:46:07.656Z,99475
2018-04-30T23:48:35.935Z,99499
2018-04-30T23:51:04.206Z,99486
2018-04-30T23:53:32.546Z,99495
2018-04-30T23:56:01.106Z,99497
2018-04-30T23:58:29.730Z,99486
